sensor_id;sensor_type;location;lat;lon;timestamp;P1;durP1;ratioP1;P2;durP2;ratioP2
76176;SDS011;64938;47.696;8.066;2023-03-11T00:01:40;4.40;;;4.00;;
76176;SDS011;64938;47.696;8.066;2023-03-11T00:04:06;4.40;;;4.00;;
76176;SDS011;64938;47.696;8.066;2023-03-11T00:06:40;6.10;;;4.27;;
76176;SDS011;64938;47.696;8.066;2023-03-11T00:09:09;5.23;;;4.23;;
76176;SDS011;64938;47.696;8.066;2023-03-11T00:11:34;4.30;;;3.97;;
76176;SDS011;64938;47.696;8.066;2023-03-11T00:14:00;4.70;;;4.10;;
76176;SDS011;64938;47.696;8.066;2023-03-11T00:16:26;5.23;;;4.40;;
76176;SDS011;64938;47.696;8.066;2023-03-11T00:18:55;7.77;;;4.47;;
76176;SDS011;64938;47.696;8.066;2023-03-11T00:21:21;4.40;;;3.97;;
76176;SDS011;64938;47.696;8.066;2023-03-11T00:23:46;4.70;;;4.30;;
76176;SDS011;64938;47.696;8.066;2023-03-11T00:26:12;4.47;;;4.07;;
76176;SDS011;64938;47.696;8.066;2023-03-11T00:28:38;4.67;;;4.23;;
76176;SDS011;64938;47.696;8.066;2023-03-11T00:31:04;6.30;;;5.20;;
76176;SDS011;64938;47.696;8.066;2023-03-11T00:33:32;4.80;;;4.03;;
76176;SDS011;64938;47.696;8.066;2023-03-11T00:35:58;5.13;;;4.30;;
76176;SDS011;64938;47.696;8.066;2023-03-11T00:38:23;5.37;;;4.20;;
76176;SDS011;64938;47.696;8.066;2023-03-11T00:40:49;4.50;;;3.70;;
76176;SDS011;64938;47.696;8.066;2023-03-11T00:43:15;4.77;;;4.33;;
76176;SDS011;64938;47.696;8.066;2023-03-11T00:45:41;4.80;;;4.40;;
76176;SDS011;64938;47.696;8.066;2023-03-11T00:48:07;5.17;;;4.43;;
76176;SDS011;64938;47.696;8.066;2023-03-11T00:50:38;5.33;;;4.70;;
76176;SDS011;64938;47.696;8.066;2023-03-11T00:53:04;4.60;;;4.20;;
76176;SDS011;64938;47.696;8.066;2023-03-11T00:55:30;4.83;;;4.03;;
76176;SDS011;64938;47.696;8.066;2023-03-11T00:57:57;4.90;;;4.40;;
76176;SDS011;64938;47.696;8.066;2023-03-11T01:00:25;4.80;;;4.40;;
76176;SDS011;64938;47.696;8.066;2023-03-11T01:02:52;5.50;;;5.00;;
76176;SDS011;64938;47.696;8.066;2023-03-11T01:05:20;5.00;;;4.53;;
76176;SDS011;64938;47.696;8.066;2023-03-11T01:07:48;5.90;;;5.40;;
76176;SDS011;64938;47.696;8.066;2023-03-11T01:10:14;5.70;;;4.90;;
76176;SDS011;64938;47.696;8.066;2023-03-11T01:12:40;4.80;;;4.40;;
76176;SDS011;64938;47.696;8.066;2023-03-11T01:15:08;5.50;;;5.00;;
76176;SDS011;64938;47.696;8.066;2023-03-11T01:17:36;5.00;;;4.50;;
76176;SDS011;64938;47.696;8.066;2023-03-11T01:20:02;5.10;;;4.60;;
76176;SDS011;64938;47.696;8.066;2023-03-11T01:22:30;5.93;;;4.80;;
76176;SDS011;64938;47.696;8.066;2023-03-11T01:24:56;4.90;;;4.40;;
76176;SDS011;64938;47.696;8.066;2023-03-11T01:27:21;6.13;;;4.93;;
76176;SDS011;64938;47.696;8.066;2023-03-11T01:29:47;4.37;;;3.97;;
76176;SDS011;64938;47.696;8.066;2023-03-11T01:32:13;5.50;;;4.87;;
76176;SDS011;64938;47.696;8.066;2023-03-11T01:34:39;5.10;;;4.60;;
76176;SDS011;64938;47.696;8.066;2023-03-11T01:37:04;5.73;;;4.43;;
76176;SDS011;64938;47.696;8.066;2023-03-11T01:39:30;4.30;;;3.90;;
76176;SDS011;64938;47.696;8.066;2023-03-11T01:41:56;5.40;;;4.90;;
76176;SDS011;64938;47.696;8.066;2023-03-11T01:44:22;4.33;;;3.93;;
76176;SDS011;64938;47.696;8.066;2023-03-11T01:49:17;5.00;;;4.33;;
76176;SDS011;64938;47.696;8.066;2023-03-11T01:51:46;5.60;;;4.33;;
76176;SDS011;64938;47.696;8.066;2023-03-11T01:54:18;5.83;;;4.87;;
76176;SDS011;64938;47.696;8.066;2023-03-11T01:56:44;6.17;;;4.30;;
76176;SDS011;64938;47.696;8.066;2023-03-11T01:59:11;4.80;;;4.30;;
76176;SDS011;64938;47.696;8.066;2023-03-11T02:01:42;4.47;;;4.07;;
76176;SDS011;64938;47.696;8.066;2023-03-11T02:04:13;5.57;;;4.60;;
76176;SDS011;64938;47.696;8.066;2023-03-11T02:06:39;5.10;;;4.60;;
76176;SDS011;64938;47.696;8.066;2023-03-11T02:09:05;5.83;;;4.53;;
76176;SDS011;64938;47.696;8.066;2023-03-11T02:11:32;4.50;;;3.90;;
76176;SDS011;64938;47.696;8.066;2023-03-11T02:13:59;5.33;;;4.70;;
76176;SDS011;64938;47.696;8.066;2023-03-11T02:16:28;4.80;;;4.27;;
76176;SDS011;64938;47.696;8.066;2023-03-11T02:18:53;4.80;;;4.40;;
76176;SDS011;64938;47.696;8.066;2023-03-11T02:23:50;4.50;;;3.80;;
76176;SDS011;64938;47.696;8.066;2023-03-11T02:29:26;4.57;;;3.90;;
76176;SDS011;64938;47.696;8.066;2023-03-11T02:31:53;4.07;;;3.67;;
76176;SDS011;64938;47.696;8.066;2023-03-11T02:34:22;4.67;;;4.00;;
76176;SDS011;64938;47.696;8.066;2023-03-11T02:36:50;4.90;;;4.00;;
76176;SDS011;64938;47.696;8.066;2023-03-11T02:39:27;4.33;;;3.30;;
76176;SDS011;64938;47.696;8.066;2023-03-11T02:41:54;3.90;;;3.50;;
76176;SDS011;64938;47.696;8.066;2023-03-11T02:44:22;3.83;;;3.43;;
76176;SDS011;64938;47.696;8.066;2023-03-11T02:46:48;4.10;;;3.70;;
76176;SDS011;64938;47.696;8.066;2023-03-11T02:49:14;5.20;;;3.80;;
76176;SDS011;64938;47.696;8.066;2023-03-11T02:51:39;4.53;;;3.90;;
76176;SDS011;64938;47.696;8.066;2023-03-11T02:54:05;3.63;;;3.33;;
76176;SDS011;64938;47.696;8.066;2023-03-11T02:56:31;3.73;;;3.07;;
76176;SDS011;64938;47.696;8.066;2023-03-11T02:58:56;3.77;;;3.47;;
76176;SDS011;64938;47.696;8.066;2023-03-11T03:01:22;4.90;;;3.67;;
76176;SDS011;64938;47.696;8.066;2023-03-11T03:03:48;4.90;;;4.00;;
76176;SDS011;64938;47.696;8.066;2023-03-11T03:06:14;3.77;;;3.43;;
76176;SDS011;64938;47.696;8.066;2023-03-11T03:08:39;4.00;;;3.60;;
76176;SDS011;64938;47.696;8.066;2023-03-11T03:11:08;3.90;;;3.47;;
76176;SDS011;64938;47.696;8.066;2023-03-11T03:13:34;4.57;;;3.53;;
76176;SDS011;64938;47.696;8.066;2023-03-11T03:16:00;3.40;;;3.07;;
76176;SDS011;64938;47.696;8.066;2023-03-11T03:18:26;4.53;;;3.40;;
76176;SDS011;64938;47.696;8.066;2023-03-11T03:20:51;4.53;;;3.47;;
76176;SDS011;64938;47.696;8.066;2023-03-11T03:23:18;3.30;;;2.87;;
76176;SDS011;64938;47.696;8.066;2023-03-11T03:25:44;4.10;;;3.60;;
76176;SDS011;64938;47.696;8.066;2023-03-11T03:28:11;3.27;;;2.97;;
76176;SDS011;64938;47.696;8.066;2023-03-11T03:30:37;4.83;;;2.80;;
76176;SDS011;64938;47.696;8.066;2023-03-11T03:33:04;4.13;;;3.17;;
76176;SDS011;64938;47.696;8.066;2023-03-11T03:35:31;3.73;;;2.93;;
76176;SDS011;64938;47.696;8.066;2023-03-11T03:37:57;3.33;;;2.60;;
76176;SDS011;64938;47.696;8.066;2023-03-11T03:40:23;3.47;;;2.93;;
76176;SDS011;64938;47.696;8.066;2023-03-11T03:42:49;2.73;;;2.53;;
76176;SDS011;64938;47.696;8.066;2023-03-11T03:45:14;3.80;;;2.60;;
76176;SDS011;64938;47.696;8.066;2023-03-11T03:47:40;4.03;;;2.90;;
76176;SDS011;64938;47.696;8.066;2023-03-11T03:50:07;3.20;;;2.87;;
76176;SDS011;64938;47.696;8.066;2023-03-11T03:52:34;3.20;;;2.90;;
76176;SDS011;64938;47.696;8.066;2023-03-11T03:55:01;4.20;;;3.10;;
76176;SDS011;64938;47.696;8.066;2023-03-11T03:57:28;4.57;;;3.17;;
76176;SDS011;64938;47.696;8.066;2023-03-11T03:59:54;3.57;;;3.07;;
76176;SDS011;64938;47.696;8.066;2023-03-11T04:02:19;3.50;;;2.63;;
76176;SDS011;64938;47.696;8.066;2023-03-11T04:04:45;3.80;;;3.03;;
76176;SDS011;64938;47.696;8.066;2023-03-11T04:07:11;3.73;;;2.73;;
76176;SDS011;64938;47.696;8.066;2023-03-11T04:09:38;2.63;;;2.43;;
76176;SDS011;64938;47.696;8.066;2023-03-11T04:12:05;3.60;;;3.00;;
76176;SDS011;64938;47.696;8.066;2023-03-11T04:14:31;3.40;;;2.93;;
76176;SDS011;64938;47.696;8.066;2023-03-11T04:16:56;3.53;;;2.93;;
76176;SDS011;64938;47.696;8.066;2023-03-11T04:19:22;3.53;;;2.90;;
76176;SDS011;64938;47.696;8.066;2023-03-11T04:21:48;3.30;;;2.83;;
76176;SDS011;64938;47.696;8.066;2023-03-11T04:24:16;3.47;;;2.50;;
76176;SDS011;64938;47.696;8.066;2023-03-11T04:26:43;2.97;;;2.67;;
76176;SDS011;64938;47.696;8.066;2023-03-11T04:29:09;2.90;;;2.60;;
76176;SDS011;64938;47.696;8.066;2023-03-11T04:31:34;2.97;;;2.57;;
76176;SDS011;64938;47.696;8.066;2023-03-11T04:34:03;2.77;;;2.40;;
76176;SDS011;64938;47.696;8.066;2023-03-11T04:36:28;2.77;;;2.50;;
76176;SDS011;64938;47.696;8.066;2023-03-11T04:38:54;4.97;;;2.70;;
76176;SDS011;64938;47.696;8.066;2023-03-11T04:41:20;3.00;;;2.53;;
76176;SDS011;64938;47.696;8.066;2023-03-11T04:43:46;2.93;;;2.40;;
76176;SDS011;64938;47.696;8.066;2023-03-11T04:46:13;3.13;;;2.80;;
76176;SDS011;64938;47.696;8.066;2023-03-11T04:48:39;3.27;;;2.70;;
76176;SDS011;64938;47.696;8.066;2023-03-11T04:51:05;3.90;;;3.07;;
76176;SDS011;64938;47.696;8.066;2023-03-11T04:53:31;4.07;;;2.60;;
76176;SDS011;64938;47.696;8.066;2023-03-11T04:55:57;2.63;;;2.27;;
76176;SDS011;64938;47.696;8.066;2023-03-11T04:58:22;2.20;;;2.00;;
76176;SDS011;64938;47.696;8.066;2023-03-11T05:00:48;2.60;;;2.20;;
76176;SDS011;64938;47.696;8.066;2023-03-11T05:03:14;2.80;;;2.20;;
76176;SDS011;64938;47.696;8.066;2023-03-11T05:05:39;2.53;;;2.33;;
76176;SDS011;64938;47.696;8.066;2023-03-11T05:08:05;2.33;;;1.90;;
76176;SDS011;64938;47.696;8.066;2023-03-11T05:10:31;1.93;;;1.70;;
76176;SDS011;64938;47.696;8.066;2023-03-11T05:12:57;2.17;;;1.73;;
76176;SDS011;64938;47.696;8.066;2023-03-11T05:15:23;2.47;;;1.73;;
76176;SDS011;64938;47.696;8.066;2023-03-11T05:17:49;1.40;;;1.30;;
76176;SDS011;64938;47.696;8.066;2023-03-11T05:20:15;1.40;;;1.30;;
76176;SDS011;64938;47.696;8.066;2023-03-11T05:22:40;2.17;;;1.40;;
76176;SDS011;64938;47.696;8.066;2023-03-11T05:25:06;1.60;;;1.27;;
76176;SDS011;64938;47.696;8.066;2023-03-11T05:27:35;1.60;;;1.50;;
76176;SDS011;64938;47.696;8.066;2023-03-11T05:30:01;2.37;;;1.30;;
76176;SDS011;64938;47.696;8.066;2023-03-11T05:32:27;2.27;;;2.07;;
76176;SDS011;64938;47.696;8.066;2023-03-11T05:34:53;1.93;;;1.40;;
76176;SDS011;64938;47.696;8.066;2023-03-11T05:37:18;2.10;;;1.50;;
76176;SDS011;64938;47.696;8.066;2023-03-11T05:39:44;1.90;;;1.20;;
76176;SDS011;64938;47.696;8.066;2023-03-11T05:42:10;1.20;;;1.10;;
76176;SDS011;64938;47.696;8.066;2023-03-11T05:44:39;1.20;;;1.10;;
76176;SDS011;64938;47.696;8.066;2023-03-11T05:47:07;1.20;;;1.10;;
76176;SDS011;64938;47.696;8.066;2023-03-11T05:49:32;2.23;;;1.30;;
76176;SDS011;64938;47.696;8.066;2023-03-11T05:51:58;1.90;;;1.30;;
76176;SDS011;64938;47.696;8.066;2023-03-11T05:54:24;1.57;;;1.40;;
76176;SDS011;64938;47.696;8.066;2023-03-11T05:56:50;1.50;;;1.40;;
76176;SDS011;64938;47.696;8.066;2023-03-11T05:59:16;1.20;;;1.10;;
76176;SDS011;64938;47.696;8.066;2023-03-11T06:01:42;1.10;;;1.00;;
76176;SDS011;64938;47.696;8.066;2023-03-11T06:04:09;1.33;;;1.23;;
76176;SDS011;64938;47.696;8.066;2023-03-11T06:06:37;1.27;;;1.10;;
76176;SDS011;64938;47.696;8.066;2023-03-11T06:09:03;1.40;;;1.30;;
76176;SDS011;64938;47.696;8.066;2023-03-11T06:11:29;1.80;;;1.60;;
76176;SDS011;64938;47.696;8.066;2023-03-11T06:13:56;2.40;;;1.70;;
76176;SDS011;64938;47.696;8.066;2023-03-11T06:16:23;2.10;;;1.23;;
76176;SDS011;64938;47.696;8.066;2023-03-11T06:18:50;1.50;;;1.40;;
76176;SDS011;64938;47.696;8.066;2023-03-11T06:21:17;1.97;;;1.40;;
76176;SDS011;64938;47.696;8.066;2023-03-11T06:23:44;1.50;;;1.40;;
76176;SDS011;64938;47.696;8.066;2023-03-11T06:26:13;1.73;;;1.30;;
76176;SDS011;64938;47.696;8.066;2023-03-11T06:28:41;1.57;;;1.47;;
76176;SDS011;64938;47.696;8.066;2023-03-11T06:31:08;2.00;;;1.10;;
76176;SDS011;64938;47.696;8.066;2023-03-11T06:33:37;2.30;;;1.40;;
76176;SDS011;64938;47.696;8.066;2023-03-11T06:36:03;1.43;;;1.33;;
76176;SDS011;64938;47.696;8.066;2023-03-11T06:38:30;1.40;;;1.30;;
76176;SDS011;64938;47.696;8.066;2023-03-11T06:40:59;2.00;;;1.60;;
76176;SDS011;64938;47.696;8.066;2023-03-11T06:43:25;1.73;;;1.60;;
76176;SDS011;64938;47.696;8.066;2023-03-11T06:45:51;1.93;;;1.30;;
76176;SDS011;64938;47.696;8.066;2023-03-11T06:48:17;1.87;;;1.33;;
76176;SDS011;64938;47.696;8.066;2023-03-11T06:50:43;2.10;;;1.60;;
76176;SDS011;64938;47.696;8.066;2023-03-11T06:53:09;1.80;;;1.70;;
76176;SDS011;64938;47.696;8.066;2023-03-11T06:55:35;2.07;;;1.50;;
76176;SDS011;64938;47.696;8.066;2023-03-11T06:58:01;1.87;;;1.67;;
76176;SDS011;64938;47.696;8.066;2023-03-11T07:00:27;1.97;;;1.77;;
76176;SDS011;64938;47.696;8.066;2023-03-11T07:02:55;2.20;;;2.00;;
76176;SDS011;64938;47.696;8.066;2023-03-11T07:05:21;1.80;;;1.70;;
76176;SDS011;64938;47.696;8.066;2023-03-11T07:07:46;1.77;;;1.67;;
76176;SDS011;64938;47.696;8.066;2023-03-11T07:10:12;1.63;;;1.53;;
76176;SDS011;64938;47.696;8.066;2023-03-11T07:12:38;2.17;;;1.97;;
76176;SDS011;64938;47.696;8.066;2023-03-11T07:15:05;2.30;;;2.13;;
76176;SDS011;64938;47.696;8.066;2023-03-11T07:17:31;3.40;;;1.90;;
76176;SDS011;64938;47.696;8.066;2023-03-11T07:19:56;2.83;;;1.57;;
76176;SDS011;64938;47.696;8.066;2023-03-11T07:22:22;3.70;;;3.20;;
76176;SDS011;64938;47.696;8.066;2023-03-11T07:24:48;1.97;;;1.77;;
76176;SDS011;64938;47.696;8.066;2023-03-11T07:27:14;2.47;;;1.87;;
76176;SDS011;64938;47.696;8.066;2023-03-11T07:29:40;2.80;;;1.60;;
76176;SDS011;64938;47.696;8.066;2023-03-11T07:32:07;3.00;;;1.63;;
76176;SDS011;64938;47.696;8.066;2023-03-11T07:34:33;2.13;;;1.60;;
76176;SDS011;64938;47.696;8.066;2023-03-11T07:36:58;2.50;;;1.43;;
76176;SDS011;64938;47.696;8.066;2023-03-11T07:39:24;1.53;;;1.40;;
76176;SDS011;64938;47.696;8.066;2023-03-11T07:41:50;1.50;;;1.40;;
76176;SDS011;64938;47.696;8.066;2023-03-11T07:44:16;4.73;;;1.73;;
76176;SDS011;64938;47.696;8.066;2023-03-11T07:46:42;1.50;;;1.40;;
76176;SDS011;64938;47.696;8.066;2023-03-11T07:49:08;2.30;;;2.03;;
76176;SDS011;64938;47.696;8.066;2023-03-11T07:51:35;2.27;;;1.90;;
76176;SDS011;64938;47.696;8.066;2023-03-11T07:54:02;2.07;;;1.77;;
76176;SDS011;64938;47.696;8.066;2023-03-11T07:56:30;2.20;;;1.43;;
76176;SDS011;64938;47.696;8.066;2023-03-11T07:58:57;1.57;;;1.40;;
76176;SDS011;64938;47.696;8.066;2023-03-11T08:01:25;2.10;;;1.53;;
76176;SDS011;64938;47.696;8.066;2023-03-11T08:03:54;1.97;;;1.70;;
76176;SDS011;64938;47.696;8.066;2023-03-11T08:06:23;2.47;;;1.70;;
76176;SDS011;64938;47.696;8.066;2023-03-11T08:08:55;2.07;;;1.73;;
76176;SDS011;64938;47.696;8.066;2023-03-11T08:11:22;2.10;;;1.53;;
76176;SDS011;64938;47.696;8.066;2023-03-11T08:13:48;2.57;;;1.77;;
76176;SDS011;64938;47.696;8.066;2023-03-11T08:16:16;1.80;;;1.03;;
76176;SDS011;64938;47.696;8.066;2023-03-11T08:18:47;4.00;;;1.67;;
76176;SDS011;64938;47.696;8.066;2023-03-11T08:21:14;2.10;;;1.67;;
76176;SDS011;64938;47.696;8.066;2023-03-11T08:23:42;2.20;;;1.50;;
76176;SDS011;64938;47.696;8.066;2023-03-11T08:26:11;3.13;;;1.53;;
76176;SDS011;64938;47.696;8.066;2023-03-11T08:28:38;1.30;;;1.20;;
76176;SDS011;64938;47.696;8.066;2023-03-11T08:31:21;1.97;;;1.67;;
76176;SDS011;64938;47.696;8.066;2023-03-11T08:33:50;1.40;;;1.30;;
76176;SDS011;64938;47.696;8.066;2023-03-11T08:36:17;1.90;;;1.27;;
76176;SDS011;64938;47.696;8.066;2023-03-11T08:38:43;2.17;;;1.53;;
76176;SDS011;64938;47.696;8.066;2023-03-11T08:41:09;1.50;;;1.40;;
76176;SDS011;64938;47.696;8.066;2023-03-11T08:43:35;1.40;;;1.30;;
76176;SDS011;64938;47.696;8.066;2023-03-11T08:46:01;1.70;;;1.57;;
76176;SDS011;64938;47.696;8.066;2023-03-11T08:48:31;2.60;;;1.73;;
76176;SDS011;64938;47.696;8.066;2023-03-11T08:50:57;1.83;;;1.70;;
76176;SDS011;64938;47.696;8.066;2023-03-11T08:53:25;2.43;;;1.80;;
76176;SDS011;64938;47.696;8.066;2023-03-11T08:55:54;2.97;;;2.00;;
76176;SDS011;64938;47.696;8.066;2023-03-11T08:58:20;2.33;;;1.63;;
76176;SDS011;64938;47.696;8.066;2023-03-11T09:00:45;4.23;;;2.67;;
76176;SDS011;64938;47.696;8.066;2023-03-11T09:03:11;2.07;;;1.63;;
76176;SDS011;64938;47.696;8.066;2023-03-11T09:05:38;1.57;;;1.47;;
76176;SDS011;64938;47.696;8.066;2023-03-11T09:08:04;2.23;;;1.97;;
76176;SDS011;64938;47.696;8.066;2023-03-11T09:10:31;1.90;;;1.80;;
76176;SDS011;64938;47.696;8.066;2023-03-11T09:12:56;2.10;;;1.90;;
76176;SDS011;64938;47.696;8.066;2023-03-11T09:15:22;3.07;;;2.30;;
76176;SDS011;64938;47.696;8.066;2023-03-11T09:17:48;2.80;;;2.57;;
76176;SDS011;64938;47.696;8.066;2023-03-11T09:20:17;3.70;;;2.20;;
76176;SDS011;64938;47.696;8.066;2023-03-11T09:22:43;2.13;;;1.77;;
76176;SDS011;64938;47.696;8.066;2023-03-11T09:25:09;4.37;;;2.07;;
76176;SDS011;64938;47.696;8.066;2023-03-11T09:27:39;2.73;;;2.07;;
76176;SDS011;64938;47.696;8.066;2023-03-11T09:30:06;2.30;;;2.10;;
76176;SDS011;64938;47.696;8.066;2023-03-11T09:32:32;2.20;;;2.00;;
76176;SDS011;64938;47.696;8.066;2023-03-11T09:35:00;2.13;;;1.90;;
76176;SDS011;64938;47.696;8.066;2023-03-11T09:37:26;2.80;;;2.30;;
76176;SDS011;64938;47.696;8.066;2023-03-11T09:39:54;2.03;;;1.93;;
76176;SDS011;64938;47.696;8.066;2023-03-11T09:45:14;2.57;;;2.37;;
76176;SDS011;64938;47.696;8.066;2023-03-11T09:50:37;4.47;;;2.50;;
76176;SDS011;64938;47.696;8.066;2023-03-11T09:53:17;2.60;;;2.40;;
76176;SDS011;64938;47.696;8.066;2023-03-11T09:56:06;2.73;;;2.53;;
76176;SDS011;64938;47.696;8.066;2023-03-11T10:01:01;3.17;;;2.63;;
76176;SDS011;64938;47.696;8.066;2023-03-11T10:03:33;2.87;;;2.57;;
76176;SDS011;64938;47.696;8.066;2023-03-11T10:06:11;5.17;;;2.90;;
76176;SDS011;64938;47.696;8.066;2023-03-11T10:08:41;3.40;;;2.90;;
76176;SDS011;64938;47.696;8.066;2023-03-11T10:14:01;2.40;;;2.20;;
76176;SDS011;64938;47.696;8.066;2023-03-11T10:16:55;3.00;;;2.73;;
76176;SDS011;64938;47.696;8.066;2023-03-11T10:19:53;2.87;;;2.57;;
76176;SDS011;64938;47.696;8.066;2023-03-11T10:22:20;3.77;;;2.70;;
76176;SDS011;64938;47.696;8.066;2023-03-11T10:27:35;3.80;;;2.60;;
76176;SDS011;64938;47.696;8.066;2023-03-11T10:35:21;2.93;;;2.73;;
76176;SDS011;64938;47.696;8.066;2023-03-11T10:37:53;3.40;;;3.10;;
76176;SDS011;64938;47.696;8.066;2023-03-11T10:42:53;3.23;;;2.93;;
76176;SDS011;64938;47.696;8.066;2023-03-11T10:45:25;2.90;;;2.70;;
76176;SDS011;64938;47.696;8.066;2023-03-11T10:47:52;4.43;;;3.43;;
76176;SDS011;64938;47.696;8.066;2023-03-11T10:50:18;3.07;;;2.80;;
76176;SDS011;64938;47.696;8.066;2023-03-11T10:53:03;3.60;;;3.30;;
76176;SDS011;64938;47.696;8.066;2023-03-11T10:55:30;2.80;;;2.60;;
76176;SDS011;64938;47.696;8.066;2023-03-11T10:58:04;2.93;;;2.60;;
76176;SDS011;64938;47.696;8.066;2023-03-11T11:00:35;2.83;;;2.63;;
76176;SDS011;64938;47.696;8.066;2023-03-11T11:03:00;2.27;;;1.77;;
76176;SDS011;64938;47.696;8.066;2023-03-11T11:05:31;2.60;;;2.40;;
76176;SDS011;64938;47.696;8.066;2023-03-11T11:10:31;2.87;;;2.67;;
76176;SDS011;64938;47.696;8.066;2023-03-11T11:13:15;3.10;;;2.80;;
76176;SDS011;64938;47.696;8.066;2023-03-11T11:23:30;2.80;;;2.60;;
76176;SDS011;64938;47.696;8.066;2023-03-11T11:26:02;3.53;;;2.67;;
76176;SDS011;64938;47.696;8.066;2023-03-11T11:28:30;2.47;;;2.37;;
76176;SDS011;64938;47.696;8.066;2023-03-11T11:31:04;2.90;;;2.70;;
76176;SDS011;64938;47.696;8.066;2023-03-11T11:33:34;2.90;;;2.70;;
76176;SDS011;64938;47.696;8.066;2023-03-11T11:36:04;2.93;;;2.73;;
76176;SDS011;64938;47.696;8.066;2023-03-11T11:38:35;3.67;;;3.37;;
76176;SDS011;64938;47.696;8.066;2023-03-11T11:41:08;3.43;;;3.13;;
76176;SDS011;64938;47.696;8.066;2023-03-11T11:49:20;3.00;;;2.80;;
76176;SDS011;64938;47.696;8.066;2023-03-11T11:51:54;3.27;;;3.00;;
76176;SDS011;64938;47.696;8.066;2023-03-11T11:54:27;3.50;;;3.20;;
76176;SDS011;64938;47.696;8.066;2023-03-11T11:57:07;3.60;;;2.77;;
76176;SDS011;64938;47.696;8.066;2023-03-11T11:59:42;3.20;;;2.90;;
76176;SDS011;64938;47.696;8.066;2023-03-11T12:05:10;3.10;;;2.70;;
76176;SDS011;64938;47.696;8.066;2023-03-11T12:15:38;2.80;;;2.60;;
76176;SDS011;64938;47.696;8.066;2023-03-11T12:18:09;3.67;;;3.37;;
76176;SDS011;64938;47.696;8.066;2023-03-11T12:20:41;2.93;;;2.63;;
76176;SDS011;64938;47.696;8.066;2023-03-11T12:26:03;3.40;;;3.10;;
76176;SDS011;64938;47.696;8.066;2023-03-11T12:28:52;2.47;;;2.27;;
76176;SDS011;64938;47.696;8.066;2023-03-11T12:31:21;2.60;;;2.40;;
76176;SDS011;64938;47.696;8.066;2023-03-11T12:33:49;2.53;;;2.33;;
76176;SDS011;64938;47.696;8.066;2023-03-11T12:36:36;3.20;;;2.80;;
76176;SDS011;64938;47.696;8.066;2023-03-11T12:39:04;3.20;;;3.00;;
76176;SDS011;64938;47.696;8.066;2023-03-11T12:44:04;3.03;;;2.83;;
76176;SDS011;64938;47.696;8.066;2023-03-11T12:49:23;4.47;;;4.07;;
76176;SDS011;64938;47.696;8.066;2023-03-11T12:54:36;3.13;;;2.93;;
76176;SDS011;64938;47.696;8.066;2023-03-11T12:59:50;4.17;;;3.77;;
76176;SDS011;64938;47.696;8.066;2023-03-11T13:16:40;2.70;;;2.50;;
76176;SDS011;64938;47.696;8.066;2023-03-11T13:21:55;2.70;;;2.50;;
76176;SDS011;64938;47.696;8.066;2023-03-11T13:35:00;2.33;;;2.13;;
76176;SDS011;64938;47.696;8.066;2023-03-11T13:37:59;2.00;;;1.80;;
76176;SDS011;64938;47.696;8.066;2023-03-11T13:40:37;3.20;;;2.90;;
76176;SDS011;64938;47.696;8.066;2023-03-11T13:43:09;3.83;;;3.10;;
76176;SDS011;64938;47.696;8.066;2023-03-11T13:45:39;2.90;;;2.70;;
76176;SDS011;64938;47.696;8.066;2023-03-11T13:50:35;2.20;;;2.00;;
76176;SDS011;64938;47.696;8.066;2023-03-11T13:53:08;2.87;;;2.67;;
76176;SDS011;64938;47.696;8.066;2023-03-11T13:55:40;2.00;;;1.90;;
76176;SDS011;64938;47.696;8.066;2023-03-11T13:58:15;2.10;;;1.90;;
76176;SDS011;64938;47.696;8.066;2023-03-11T14:00:47;3.57;;;1.90;;
76176;SDS011;64938;47.696;8.066;2023-03-11T14:03:15;1.70;;;1.60;;
76176;SDS011;64938;47.696;8.066;2023-03-11T14:05:47;1.90;;;1.70;;
76176;SDS011;64938;47.696;8.066;2023-03-11T14:08:30;1.73;;;1.63;;
76176;SDS011;64938;47.696;8.066;2023-03-11T14:11:16;1.57;;;1.47;;
76176;SDS011;64938;47.696;8.066;2023-03-11T14:13:44;2.00;;;1.80;;
76176;SDS011;64938;47.696;8.066;2023-03-11T14:18:40;1.80;;;1.70;;
76176;SDS011;64938;47.696;8.066;2023-03-11T14:21:10;1.40;;;1.30;;
76176;SDS011;64938;47.696;8.066;2023-03-11T14:23:39;1.50;;;1.40;;
76176;SDS011;64938;47.696;8.066;2023-03-11T14:26:07;1.60;;;1.50;;
76176;SDS011;64938;47.696;8.066;2023-03-11T14:28:37;1.83;;;1.73;;
76176;SDS011;64938;47.696;8.066;2023-03-11T14:31:05;1.67;;;1.57;;
76176;SDS011;64938;47.696;8.066;2023-03-11T14:33:32;1.77;;;1.67;;
76176;SDS011;64938;47.696;8.066;2023-03-11T14:35:59;1.97;;;1.70;;
76176;SDS011;64938;47.696;8.066;2023-03-11T14:38:28;1.80;;;1.53;;
76176;SDS011;64938;47.696;8.066;2023-03-11T14:40:56;1.73;;;1.63;;
76176;SDS011;64938;47.696;8.066;2023-03-11T14:43:23;2.00;;;1.90;;
76176;SDS011;64938;47.696;8.066;2023-03-11T14:45:49;2.40;;;2.20;;
76176;SDS011;64938;47.696;8.066;2023-03-11T14:50:50;2.37;;;2.00;;
76176;SDS011;64938;47.696;8.066;2023-03-11T14:53:25;3.27;;;2.40;;
76176;SDS011;64938;47.696;8.066;2023-03-11T14:55:56;2.50;;;2.30;;
76176;SDS011;64938;47.696;8.066;2023-03-11T14:58:27;2.30;;;2.10;;
76176;SDS011;64938;47.696;8.066;2023-03-11T15:01:20;2.20;;;1.80;;
76176;SDS011;64938;47.696;8.066;2023-03-11T15:03:49;3.50;;;3.20;;
76176;SDS011;64938;47.696;8.066;2023-03-11T15:06:16;2.20;;;2.00;;
76176;SDS011;64938;47.696;8.066;2023-03-11T15:08:44;4.47;;;2.30;;
76176;SDS011;64938;47.696;8.066;2023-03-11T15:13:41;2.27;;;2.07;;
76176;SDS011;64938;47.696;8.066;2023-03-11T15:16:27;2.23;;;2.03;;
76176;SDS011;64938;47.696;8.066;2023-03-11T15:18:54;2.30;;;2.10;;
76176;SDS011;64938;47.696;8.066;2023-03-11T15:21:21;2.70;;;2.50;;
76176;SDS011;64938;47.696;8.066;2023-03-11T15:23:50;2.90;;;2.70;;
76176;SDS011;64938;47.696;8.066;2023-03-11T15:26:18;3.60;;;2.30;;
76176;SDS011;64938;47.696;8.066;2023-03-11T15:28:51;2.83;;;2.30;;
76176;SDS011;64938;47.696;8.066;2023-03-11T15:33:45;2.70;;;2.10;;
76176;SDS011;64938;47.696;8.066;2023-03-11T15:36:27;2.60;;;2.40;;
76176;SDS011;64938;47.696;8.066;2023-03-11T15:41:45;2.00;;;1.80;;
76176;SDS011;64938;47.696;8.066;2023-03-11T15:44:21;2.43;;;2.23;;
76176;SDS011;64938;47.696;8.066;2023-03-11T15:46:48;2.47;;;2.20;;
76176;SDS011;64938;47.696;8.066;2023-03-11T15:49:13;2.60;;;2.40;;
76176;SDS011;64938;47.696;8.066;2023-03-11T15:51:39;3.47;;;2.50;;
76176;SDS011;64938;47.696;8.066;2023-03-11T15:54:05;2.63;;;2.30;;
76176;SDS011;64938;47.696;8.066;2023-03-11T15:56:31;2.23;;;2.00;;
76176;SDS011;64938;47.696;8.066;2023-03-11T15:58:58;2.53;;;2.10;;
76176;SDS011;64938;47.696;8.066;2023-03-11T16:01:23;2.40;;;2.20;;
76176;SDS011;64938;47.696;8.066;2023-03-11T16:03:53;3.00;;;2.67;;
76176;SDS011;64938;47.696;8.066;2023-03-11T16:06:19;3.50;;;2.30;;
76176;SDS011;64938;47.696;8.066;2023-03-11T16:08:49;2.73;;;2.43;;
76176;SDS011;64938;47.696;8.066;2023-03-11T16:11:14;2.53;;;1.90;;
76176;SDS011;64938;47.696;8.066;2023-03-11T16:13:40;3.50;;;2.30;;
76176;SDS011;64938;47.696;8.066;2023-03-11T16:16:14;2.67;;;2.30;;
76176;SDS011;64938;47.696;8.066;2023-03-11T16:18:42;2.63;;;2.43;;
76176;SDS011;64938;47.696;8.066;2023-03-11T16:21:09;2.37;;;2.17;;
76176;SDS011;64938;47.696;8.066;2023-03-11T16:23:40;2.00;;;1.60;;
76176;SDS011;64938;47.696;8.066;2023-03-11T16:26:06;2.87;;;2.43;;
76176;SDS011;64938;47.696;8.066;2023-03-11T16:28:41;2.53;;;2.07;;
76176;SDS011;64938;47.696;8.066;2023-03-11T16:31:07;2.50;;;2.30;;
76176;SDS011;64938;47.696;8.066;2023-03-11T16:33:34;3.53;;;3.00;;
76176;SDS011;64938;47.696;8.066;2023-03-11T16:36:00;2.27;;;2.07;;
76176;SDS011;64938;47.696;8.066;2023-03-11T16:38:28;2.23;;;2.03;;
76176;SDS011;64938;47.696;8.066;2023-03-11T16:43:22;2.47;;;2.27;;
76176;SDS011;64938;47.696;8.066;2023-03-11T16:45:48;2.53;;;2.20;;
76176;SDS011;64938;47.696;8.066;2023-03-11T16:48:14;3.93;;;2.90;;
76176;SDS011;64938;47.696;8.066;2023-03-11T16:50:40;3.20;;;2.90;;